Time;durP1;ratioP1;P1;durP2;ratioP2;P2;SDS_P1;SDS_P2;PMS_P1;PMS_P2;Temp;Humidity;BMP_temperature;BMP_pressure;BME280_temperature;BME280_humidity;BME280_pressure;Samples;Min_cycle;Max_cycle;Signal;HPM_P1;HPM_P2
2023/06/29 00:02:25;;;;;;;2.63;2.42;;;14.00;99.90;;;;;;5018967;28;20075;-35
2023/06/29 00:04:56;;;;;;;3.22;2.90;;;14.10;99.90;;;;;;5015403;28;20057;-39
2023/06/29 00:07:25;;;;;;;3.00;2.40;;;14.10;99.90;;;;;;5015688;28;20518;-36
2023/06/29 00:09:52;;;;;;;2.80;2.60;;;14.20;99.90;;;;;;5014907;28;20041;-36
2023/06/29 00:12:18;;;;;;;3.30;3.00;;;14.20;99.90;;;;;;5013495;28;20074;-37
2023/06/29 00:14:44;;;;;;;2.92;2.63;;;14.20;99.90;;;;;;5013515;28;20783;-41
2023/06/29 00:17:09;;;;;;;2.50;2.30;;;14.00;99.90;;;;;;5012481;28;20119;-35
2023/06/29 00:19:36;;;;;;;3.20;2.90;;;14.00;99.90;;;;;;5013845;28;20026;-41
2023/06/29 00:22:02;;;;;;;3.25;2.55;;;14.00;99.90;;;;;;5013840;28;20025;-38
2023/06/29 00:24:29;;;;;;;4.88;2.70;;;13.80;99.90;;;;;;5019926;28;20041;-38
2023/06/29 00:26:54;;;;;;;2.70;2.50;;;13.80;99.90;;;;;;5017662;28;20084;-39
2023/06/29 00:29:20;;;;;;;3.05;2.85;;;13.50;99.90;;;;;;5022544;28;20590;-39
2023/06/29 00:31:45;;;;;;;2.78;2.55;;;13.60;99.90;;;;;;5023371;28;20498;-37
2023/06/29 00:34:11;;;;;;;2.90;2.60;;;13.70;99.90;;;;;;5021689;28;20033;-40
2023/06/29 00:36:37;;;;;;;3.28;2.97;;;13.60;99.90;;;;;;5025166;28;20126;-40
2023/06/29 00:39:03;;;;;;;3.33;2.90;;;13.50;99.90;;;;;;5022281;28;20045;-40
2023/06/29 00:41:28;;;;;;;4.65;2.67;;;13.30;99.90;;;;;;5016208;28;20033;-40
2023/06/29 00:43:55;;;;;;;3.22;2.95;;;13.20;99.90;;;;;;5019306;28;20087;-41
2023/06/29 00:46:20;;;;;;;3.47;2.75;;;13.10;99.90;;;;;;5020005;28;20684;-39
2023/06/29 00:48:47;;;;;;;3.55;2.55;;;13.20;99.90;;;;;;5023185;28;20043;-40
2023/06/29 00:51:15;;;;;;;4.40;3.10;;;13.10;99.90;;;;;;5025214;28;20037;-40
2023/06/29 00:53:42;;;;;;;2.75;2.55;;;12.90;99.90;;;;;;5024688;28;20033;-39
2023/06/29 00:56:07;;;;;;;4.72;2.75;;;12.70;99.90;;;;;;5018204;28;20061;-38
2023/06/29 00:58:33;;;;;;;3.33;2.72;;;13.00;99.90;;;;;;5021251;28;20053;-38
2023/06/29 01:00:59;;;;;;;3.53;2.97;;;13.10;99.90;;;;;;5024822;28;20029;-41
2023/06/29 01:03:24;;;;;;;3.20;2.90;;;13.10;99.90;;;;;;5022706;28;20487;-40
2023/06/29 01:05:56;;;;;;;4.15;3.10;;;13.00;99.90;;;;;;5025384;28;20571;-40
2023/06/29 01:08:28;;;;;;;4.20;2.97;;;13.10;99.90;;;;;;5021801;28;20095;-38
2023/06/29 01:10:55;;;;;;;2.90;2.70;;;13.10;99.90;;;;;;5023601;28;20092;-40
2023/06/29 01:13:22;;;;;;;3.55;2.90;;;13.10;99.90;;;;;;5024520;28;20501;-40
2023/06/29 01:15:50;;;;;;;2.53;2.33;;;13.20;99.90;;;;;;5021872;28;20033;-40
2023/06/29 01:18:16;;;;;;;2.65;2.45;;;13.20;99.90;;;;;;5012880;28;20033;-41
2023/06/29 01:20:44;;;;;;;2.60;2.40;;;13.20;99.90;;;;;;5020868;28;20029;-41
2023/06/29 01:23:21;;;;;;;3.92;2.83;;;13.20;99.90;;;;;;5021962;28;20399;-41
2023/06/29 01:25:47;;;;;;;3.40;2.88;;;13.10;99.90;;;;;;5020900;28;20048;-39
2023/06/29 01:28:13;;;;;;;3.55;3.25;;;13.20;99.90;;;;;;5018949;28;20495;-40
2023/06/29 01:30:45;;;;;;;3.63;2.85;;;13.20;99.90;;;;;;5024059;28;20025;-40
2023/06/29 01:33:11;;;;;;;3.13;2.83;;;13.20;99.90;;;;;;5020797;28;20429;-39
2023/06/29 01:35:37;;;;;;;3.25;3.05;;;13.10;99.90;;;;;;5022167;28;20037;-37
2023/06/29 01:38:07;;;;;;;2.75;2.53;;;13.10;99.90;;;;;;5019020;28;20482;-40
2023/06/29 01:40:37;;;;;;;3.25;2.78;;;13.10;99.90;;;;;;5020768;28;20025;-36
2023/06/29 01:43:03;;;;;;;3.20;2.67;;;13.10;99.90;;;;;;5024109;28;20478;-40
2023/06/29 01:45:29;;;;;;;3.15;2.80;;;13.00;99.90;;;;;;5023995;28;20034;-41
2023/06/29 01:47:57;;;;;;;4.18;3.00;;;13.00;99.90;;;;;;5019065;28;20549;-40
2023/06/29 01:50:23;;;;;;;2.50;2.30;;;13.00;99.90;;;;;;5020059;28;20458;-41
2023/06/29 01:52:49;;;;;;;3.00;2.70;;;12.90;99.90;;;;;;5020349;28;20392;-39
2023/06/29 01:55:15;;;;;;;2.92;2.53;;;12.90;99.90;;;;;;5020752;28;20033;-39
2023/06/29 01:57:40;;;;;;;3.08;2.70;;;12.90;99.90;;;;;;5021048;28;20021;-37
2023/06/29 02:00:06;;;;;;;3.13;2.58;;;12.80;99.90;;;;;;5022333;28;20115;-37
2023/06/29 02:02:32;;;;;;;4.43;2.60;;;12.80;99.90;;;;;;5026213;28;20037;-40
2023/06/29 02:04:58;;;;;;;3.35;2.80;;;12.90;99.90;;;;;;5019370;28;20511;-35
2023/06/29 02:07:24;;;;;;;2.65;2.35;;;12.90;99.90;;;;;;5025835;28;20092;-32
2023/06/29 02:09:51;;;;;;;3.20;2.78;;;12.90;99.90;;;;;;5024828;28;20029;-30
2023/06/29 02:12:17;;;;;;;2.72;2.53;;;13.00;99.90;;;;;;5021267;28;20022;-30
2023/06/29 02:14:42;;;;;;;3.28;2.97;;;12.90;99.90;;;;;;5022421;28;20028;-32
2023/06/29 02:17:08;;;;;;;5.30;2.50;;;12.90;99.90;;;;;;5026401;28;20030;-29
2023/06/29 02:19:34;;;;;;;3.25;2.78;;;12.80;99.90;;;;;;5025467;28;20120;-30
2023/06/29 02:21:59;;;;;;;3.15;2.85;;;12.80;99.90;;;;;;5025923;28;20037;-30
2023/06/29 02:24:25;;;;;;;2.60;2.40;;;12.70;99.90;;;;;;5023189;28;20095;-31
2023/06/29 02:26:50;;;;;;;2.53;2.33;;;12.60;99.90;;;;;;5025742;28;20033;-32
2023/06/29 02:29:16;;;;;;;3.17;2.92;;;12.60;99.90;;;;;;5021751;28;20486;-33
2023/06/29 02:31:42;;;;;;;4.85;2.78;;;12.60;99.90;;;;;;5020037;28;20041;-30
2023/06/29 02:34:07;;;;;;;6.47;2.83;;;12.50;99.90;;;;;;5021572;28;20041;-30
2023/06/29 02:36:33;;;;;;;3.78;2.67;;;12.50;99.90;;;;;;5024253;28;20022;-30
2023/06/29 02:38:58;;;;;;;2.67;2.47;;;12.50;99.90;;;;;;5023277;28;20663;-30
2023/06/29 02:41:24;;;;;;;3.08;2.78;;;12.40;99.90;;;;;;5023096;28;20017;-31
2023/06/29 02:43:50;;;;;;;4.40;2.90;;;12.50;99.90;;;;;;5022113;28;20053;-32
2023/06/29 02:46:15;;;;;;;4.97;2.60;;;12.50;99.90;;;;;;5023303;28;20018;-33
2023/06/29 02:48:41;;;;;;;4.60;3.40;;;12.40;99.90;;;;;;5021492;28;20041;-30
2023/06/29 02:51:07;;;;;;;4.63;2.85;;;12.40;99.90;;;;;;5025826;28;20056;-33
2023/06/29 02:53:33;;;;;;;3.30;3.00;;;12.40;99.90;;;;;;5029793;28;20034;-33
2023/06/29 02:55:58;;;;;;;4.65;3.20;;;12.40;99.90;;;;;;5020721;28;20048;-33
2023/06/29 02:58:24;;;;;;;3.72;2.92;;;12.50;99.90;;;;;;5026918;28;20036;-35
2023/06/29 03:00:49;;;;;;;3.85;2.80;;;12.40;99.90;;;;;;5025484;28;20034;-30
2023/06/29 03:03:15;;;;;;;3.30;3.00;;;12.40;99.90;;;;;;5024936;28;20021;-32
2023/06/29 03:05:40;;;;;;;3.70;3.05;;;12.30;99.90;;;;;;5022481;28;20127;-34
2023/06/29 03:08:06;;;;;;;3.95;3.08;;;12.30;99.90;;;;;;5028824;28;20037;-35
2023/06/29 03:10:31;;;;;;;3.35;3.05;;;12.40;99.90;;;;;;5029541;28;20735;-30
2023/06/29 03:12:57;;;;;;;6.40;3.03;;;12.40;99.90;;;;;;5027863;28;20033;-30
2023/06/29 03:15:23;;;;;;;2.85;2.60;;;12.40;99.90;;;;;;5009982;28;20021;-30
2023/06/29 03:17:48;;;;;;;4.32;2.95;;;12.30;99.90;;;;;;5026506;28;20036;-32
2023/06/29 03:20:14;;;;;;;3.60;3.30;;;12.20;99.90;;;;;;5025129;28;20017;-35
2023/06/29 03:22:40;;;;;;;3.75;2.80;;;12.10;99.90;;;;;;5022593;28;20808;-33
2023/06/29 03:25:07;;;;;;;3.20;2.90;;;12.10;99.90;;;;;;5023886;28;20022;-32
2023/06/29 03:27:33;;;;;;;4.60;2.80;;;12.10;99.90;;;;;;5022749;28;20120;-32
2023/06/29 03:29:58;;;;;;;5.55;2.95;;;12.10;99.90;;;;;;5025036;28;20567;-33
2023/06/29 03:32:24;;;;;;;4.30;3.00;;;12.10;99.90;;;;;;5023672;28;20072;-35
2023/06/29 03:34:49;;;;;;;3.45;3.05;;;12.20;99.90;;;;;;5021006;28;20045;-33
2023/06/29 03:37:15;;;;;;;5.95;3.55;;;12.20;99.90;;;;;;5020860;28;20096;-32
2023/06/29 03:39:40;;;;;;;3.40;2.85;;;12.20;99.90;;;;;;5025868;28;20091;-36
2023/06/29 03:42:06;;;;;;;2.70;2.42;;;12.20;99.90;;;;;;5030511;28;20049;-33
2023/06/29 03:44:32;;;;;;;3.08;2.88;;;12.10;99.90;;;;;;5022744;28;20045;-32
2023/06/29 03:46:57;;;;;;;2.42;2.22;;;12.10;99.90;;;;;;5023296;28;20487;-32
2023/06/29 03:49:23;;;;;;;3.03;2.83;;;12.20;99.90;;;;;;5022895;28;20372;-35
2023/06/29 03:51:48;;;;;;;3.38;3.08;;;12.20;99.90;;;;;;5026533;28;20395;-33
2023/06/29 03:54:14;;;;;;;3.15;2.85;;;12.20;99.90;;;;;;5024376;28;20025;-33
2023/06/29 03:56:39;;;;;;;4.47;3.00;;;12.20;99.90;;;;;;5024575;28;20768;-33
2023/06/29 03:59:05;;;;;;;3.25;3.03;;;12.20;99.90;;;;;;5020813;28;20040;-32
2023/06/29 04:01:31;;;;;;;2.85;2.65;;;12.10;99.90;;;;;;5021262;28;20109;-32
2023/06/29 04:03:56;;;;;;;3.97;2.63;;;12.10;99.90;;;;;;5022055;28;20499;-36
2023/06/29 04:06:22;;;;;;;2.67;2.47;;;12.20;99.90;;;;;;5024644;28;21146;-33
2023/06/29 04:08:47;;;;;;;2.97;2.78;;;12.20;99.90;;;;;;5023284;28;20119;-33
2023/06/29 04:11:13;;;;;;;3.33;3.13;;;12.20;99.90;;;;;;5025945;28;20032;-34
2023/06/29 04:13:39;;;;;;;3.47;3.17;;;12.40;99.90;;;;;;5021749;28;20029;-33
2023/06/29 04:16:04;;;;;;;3.63;3.33;;;12.50;99.90;;;;;;5019970;28;20044;-34
2023/06/29 04:18:30;;;;;;;3.45;3.17;;;12.50;99.90;;;;;;5025286;28;20030;-32
2023/06/29 04:20:55;;;;;;;3.70;3.40;;;12.60;99.90;;;;;;5024087;28;20126;-35
2023/06/29 04:23:21;;;;;;;3.97;3.55;;;12.70;99.90;;;;;;5026308;28;20160;-33
2023/06/29 04:25:47;;;;;;;4.10;3.70;;;12.70;99.90;;;;;;5027304;28;20112;-41
2023/06/29 04:28:12;;;;;;;6.43;3.42;;;12.80;99.90;;;;;;5026680;28;20399;-29
2023/06/29 04:30:41;;;;;;;4.38;3.90;;;12.90;99.90;;;;;;5022397;28;20922;-31
2023/06/29 04:33:10;;;;;;;4.28;3.78;;;13.00;99.90;;;;;;5023327;28;20026;-30
2023/06/29 04:35:40;;;;;;;4.55;3.70;;;13.10;99.90;;;;;;5022184;28;20036;-29
2023/06/29 04:38:09;;;;;;;4.22;3.50;;;13.20;99.90;;;;;;5026701;28;20104;-30
2023/06/29 04:40:35;;;;;;;;;;;13.20;99.90;;;;;;5026707;28;20021;-30
2023/06/29 04:43:01;;;;;;;4.00;3.63;;;13.30;99.90;;;;;;5024656;28;20403;-30
2023/06/29 04:45:28;;;;;;;4.50;3.72;;;13.40;99.90;;;;;;5026762;28;20475;-30
2023/06/29 04:47:56;;;;;;;5.15;3.45;;;13.50;99.90;;;;;;5024378;28;20034;-31
2023/06/29 04:50:25;;;;;;;4.32;3.58;;;13.60;99.90;;;;;;5024715;28;20076;-32
2023/06/29 04:52:54;;;;;;;3.83;3.33;;;13.60;99.90;;;;;;5028650;28;20041;-30
2023/06/29 04:55:20;;;;;;;3.50;3.20;;;13.60;99.90;;;;;;5025844;28;20132;-31
2023/06/29 04:57:46;;;;;;;4.93;3.67;;;13.60;99.90;;;;;;5022841;28;20239;-31
2023/06/29 05:00:12;;;;;;;4.57;4.07;;;13.60;99.90;;;;;;5022295;28;20041;-30
2023/06/29 05:02:38;;;;;;;4.28;3.88;;;13.60;99.90;;;;;;5025443;28;20030;-30
2023/06/29 05:05:05;;;;;;;5.20;3.97;;;13.60;99.90;;;;;;5021865;28;20475;-30
2023/06/29 05:07:30;;;;;;;4.82;4.28;;;13.60;99.90;;;;;;5024855;28;20458;-31
2023/06/29 05:09:56;;;;;;;3.72;3.42;;;13.60;99.90;;;;;;5025453;28;20065;-31
2023/06/29 05:12:22;;;;;;;4.38;3.95;;;13.60;99.90;;;;;;5023887;28;20029;-34
2023/06/29 05:14:47;;;;;;;5.72;4.43;;;13.70;99.90;;;;;;5022192;28;20463;-30
2023/06/29 05:17:13;;;;;;;5.57;3.95;;;13.80;99.90;;;;;;5026330;28;20037;-32
2023/06/29 05:19:39;;;;;;;4.70;4.10;;;13.90;99.90;;;;;;5027764;28;20057;-31
2023/06/29 05:22:04;;;;;;;4.88;3.97;;;13.90;99.90;;;;;;5025379;28;20559;-32
2023/06/29 05:24:30;;;;;;;5.50;4.03;;;14.00;99.90;;;;;;5021017;28;20037;-33
2023/06/29 05:26:56;;;;;;;5.45;4.15;;;14.10;99.90;;;;;;5022952;28;20049;-33
2023/06/29 05:29:21;;;;;;;5.40;3.83;;;14.20;99.90;;;;;;5023247;28;20036;-31
2023/06/29 05:31:47;;;;;;;5.20;4.28;;;14.40;99.90;;;;;;5024659;28;20046;-31
2023/06/29 05:34:13;;;;;;;4.70;4.28;;;14.50;99.90;;;;;;5025601;28;20112;-33
2023/06/29 05:36:38;;;;;;;4.93;4.07;;;14.60;99.90;;;;;;5020933;28;20045;-34
2023/06/29 05:39:05;;;;;;;4.88;4.18;;;14.80;99.90;;;;;;5020327;28;20155;-33
2023/06/29 05:41:31;;;;;;;4.97;3.80;;;14.90;99.90;;;;;;5019109;28;20030;-34
2023/06/29 05:43:56;;;;;;;4.30;3.90;;;15.10;99.90;;;;;;5021613;28;20045;-36
2023/06/29 05:46:22;;;;;;;6.60;4.40;;;15.20;99.90;;;;;;5019673;28;20036;-34
2023/06/29 05:48:48;;;;;;;6.28;4.15;;;15.40;99.90;;;;;;5020493;28;20029;-33
2023/06/29 05:51:13;;;;;;;4.30;4.00;;;15.50;99.90;;;;;;5023078;28;20056;-33
2023/06/29 05:53:39;;;;;;;5.00;4.10;;;15.70;99.90;;;;;;5020647;28;20116;-36
2023/06/29 05:56:05;;;;;;;6.80;4.07;;;15.80;99.90;;;;;;5017529;28;20506;-35
2023/06/29 05:58:30;;;;;;;6.97;4.25;;;15.90;99.90;;;;;;5022369;28;20033;-35
2023/06/29 06:00:56;;;;;;;4.78;4.20;;;15.90;99.90;;;;;;5019418;28;20026;-33
2023/06/29 06:03:23;;;;;;;4.30;3.70;;;16.00;99.90;;;;;;5022158;28;20021;-34
2023/06/29 06:05:49;;;;;;;4.60;4.05;;;16.20;99.90;;;;;;5018882;28;20039;-33
2023/06/29 06:08:15;;;;;;;8.68;3.95;;;16.30;99.90;;;;;;5019409;28;20041;-33
2023/06/29 06:10:40;;;;;;;4.53;3.55;;;16.50;99.90;;;;;;5020545;28;20084;-35
2023/06/29 06:13:06;;;;;;;4.53;3.83;;;16.70;99.90;;;;;;5019441;28;20029;-34
2023/06/29 06:15:31;;;;;;;4.80;3.70;;;16.90;99.90;;;;;;5019429;28;20043;-33
2023/06/29 06:17:57;;;;;;;5.38;4.70;;;17.10;99.90;;;;;;4999172;28;20030;-34
2023/06/29 06:20:23;;;;;;;5.97;4.65;;;17.10;99.90;;;;;;5015192;28;20105;-33
2023/06/29 06:22:48;;;;;;;5.15;4.45;;;17.20;99.90;;;;;;5022327;28;20033;-34
2023/06/29 06:25:17;;;;;;;8.20;4.82;;;17.40;99.90;;;;;;5022392;28;20037;-35
2023/06/29 06:27:43;;;;;;;4.95;4.40;;;17.50;99.90;;;;;;5025663;28;20041;-36
2023/06/29 06:30:09;;;;;;;5.82;4.60;;;17.70;99.90;;;;;;5023526;28;20033;-35
2023/06/29 06:32:36;;;;;;;5.15;4.47;;;17.80;99.90;;;;;;5022107;28;20037;-33
2023/06/29 06:35:04;;;;;;;5.60;4.50;;;17.80;99.90;;;;;;5023919;28;20035;-34
2023/06/29 06:37:30;;;;;;;5.88;4.47;;;18.00;99.90;;;;;;5023037;28;20858;-33
2023/06/29 06:39:55;;;;;;;5.90;4.45;;;18.20;99.90;;;;;;5024056;28;20120;-36
2023/06/29 06:42:21;;;;;;;6.20;3.85;;;18.50;99.90;;;;;;5023624;28;20714;-34
2023/06/29 06:44:55;;;;;;;4.50;3.60;;;18.70;99.90;;;;;;5024799;28;20037;-34
2023/06/29 06:47:21;;;;;;;7.43;4.28;;;18.90;99.90;;;;;;5024212;28;20086;-40
2023/06/29 06:49:47;;;;;;;5.75;4.10;;;19.10;99.90;;;;;;5023995;28;20025;-42
2023/06/29 06:52:13;;;;;;;4.22;3.67;;;19.30;99.90;;;;;;5025170;28;20029;-37
2023/06/29 06:54:39;;;;;;;3.95;3.55;;;19.50;99.90;;;;;;4990912;28;20083;-41
2023/06/29 06:57:05;;;;;;;4.90;3.67;;;19.60;99.90;;;;;;5025055;28;20033;-40
2023/06/29 06:59:30;;;;;;;4.78;3.45;;;19.90;99.90;;;;;;5025370;28;20025;-39
2023/06/29 07:01:56;;;;;;;4.53;3.55;;;19.90;99.90;;;;;;5023385;28;20043;-40
2023/06/29 07:04:21;;;;;;;5.55;3.67;;;20.10;99.90;;;;;;5026031;28;20029;-41
2023/06/29 07:06:47;;;;;;;4.63;3.70;;;20.20;99.90;;;;;;5023368;28;20091;-39
2023/06/29 07:09:13;;;;;;;4.45;4.05;;;20.20;99.90;;;;;;5026117;28;20029;-40
2023/06/29 07:11:40;;;;;;;5.45;3.50;;;20.30;99.90;;;;;;5023149;28;20033;-40
2023/06/29 07:14:05;;;;;;;4.13;3.47;;;20.30;99.90;;;;;;5025534;28;20104;-40
2023/06/29 07:16:31;;;;;;;3.92;2.85;;;20.60;99.90;;;;;;5026993;28;20041;-39
2023/06/29 07:19:04;;;;;;;2.80;2.20;;;20.60;99.90;;;;;;5025239;28;20033;-42
2023/06/29 07:21:30;;;;;;;5.07;2.38;;;20.80;99.90;;;;;;5025923;28;20021;-40
2023/06/29 07:23:56;;;;;;;3.05;2.60;;;20.90;99.90;;;;;;5027679;28;20040;-41
2023/06/29 07:26:22;;;;;;;4.28;2.50;;;21.30;99.90;;;;;;5025501;28;20450;-38
2023/06/29 07:28:48;;;;;;;2.75;2.45;;;21.50;99.90;;;;;;5026148;28;20029;-40
2023/06/29 07:31:14;;;;;;;3.75;2.63;;;21.40;99.90;;;;;;5029238;28;20026;-41
2023/06/29 07:33:41;;;;;;;3.08;2.47;;;21.50;99.90;;;;;;5020665;28;20029;-38
2023/06/29 07:36:07;;;;;;;3.45;2.47;;;21.60;99.90;;;;;;5026914;28;20117;-40
2023/06/29 07:38:33;;;;;;;4.68;2.67;;;21.70;99.90;;;;;;5025912;28;20079;-41
2023/06/29 07:40:59;;;;;;;2.55;2.22;;;21.70;99.90;;;;;;5026868;28;20422;-38
2023/06/29 07:43:24;;;;;;;3.00;2.50;;;22.10;99.90;;;;;;5023017;28;20488;-41
2023/06/29 07:45:50;;;;;;;7.30;2.80;;;22.40;99.90;;;;;;5019783;28;20045;-39
2023/06/29 07:48:16;;;;;;;4.38;2.58;;;22.20;99.90;;;;;;5019507;28;20029;-41
2023/06/29 07:50:42;;;;;;;5.00;2.45;;;22.20;99.90;;;;;;5017946;28;20372;-41
2023/06/29 07:53:08;;;;;;;3.17;2.20;;;22.00;99.90;;;;;;5026544;28;20099;-41
2023/06/29 07:55:34;;;;;;;3.50;2.63;;;22.10;99.90;;;;;;5028861;28;20044;-38
2023/06/29 07:58:00;;;;;;;4.38;2.83;;;22.10;99.90;;;;;;5026207;28;20596;-31
2023/06/29 08:00:25;;;;;;;3.22;2.50;;;22.00;99.90;;;;;;5026583;28;20084;-32
2023/06/29 08:02:51;;;;;;;4.95;2.33;;;22.10;99.90;;;;;;5024471;28;20081;-30
2023/06/29 08:05:17;;;;;;;2.60;2.40;;;22.40;99.90;;;;;;5027649;28;20087;-30
2023/06/29 08:07:43;;;;;;;2.80;2.33;;;22.60;99.90;;;;;;5028061;28;20108;-29
2023/06/29 08:10:09;;;;;;;2.63;2.28;;;23.00;99.90;;;;;;5006975;28;20128;-30
2023/06/29 08:12:34;;;;;;;2.63;2.00;;;22.90;99.90;;;;;;5029312;28;20037;-30
2023/06/29 08:15:00;;;;;;;2.88;2.30;;;22.80;99.90;;;;;;5023334;28;20049;-31
2023/06/29 08:17:26;;;;;;;2.72;2.10;;;22.60;99.90;;;;;;5024987;28;20026;-31
2023/06/29 08:19:51;;;;;;;2.63;1.98;;;22.70;99.90;;;;;;5023036;28;20072;-30
2023/06/29 08:22:17;;;;;;;4.35;2.40;;;22.70;99.90;;;;;;5021860;28;20472;-30
2023/06/29 08:24:42;;;;;;;3.90;2.20;;;23.10;99.90;;;;;;5019372;28;20034;-30
2023/06/29 08:27:08;;;;;;;3.00;2.33;;;23.10;99.90;;;;;;5021061;28;20034;-31
2023/06/29 08:29:34;;;;;;;4.35;2.10;;;23.10;99.90;;;;;;5035520;28;20112;-30
2023/06/29 08:31:59;;;;;;;3.13;1.77;;;23.20;99.90;;;;;;5024439;28;20038;-31
2023/06/29 08:58:25;;;;;;;6.18;3.58;;;24.80;99.90;;;;;;5019903;28;20060;-31
2023/06/29 09:00:53;;;;;;;3.13;2.22;;;24.30;99.90;;;;;;5022588;28;20664;-32
2023/06/29 09:03:19;;;;;;;2.40;1.92;;;24.00;99.90;;;;;;5024682;28;20390;-30
2023/06/29 09:05:45;;;;;;;4.90;2.05;;;24.00;99.90;;;;;;5022184;28;20028;-33
2023/06/29 09:08:11;;;;;;;2.33;2.03;;;24.00;99.90;;;;;;5010069;28;20033;-30
2023/06/29 09:10:39;;;;;;;6.50;2.10;;;24.30;99.90;;;;;;5020817;28;20033;-31
2023/06/29 09:13:05;;;;;;;4.28;2.05;;;24.70;99.90;;;;;;5026597;28;20034;-34
2023/06/29 09:15:31;;;;;;;3.35;2.00;;;25.20;99.90;;;;;;5006668;28;20506;-30
2023/06/29 09:17:57;;;;;;;3.00;1.67;;;25.50;99.90;;;;;;5024423;28;20060;-33
2023/06/29 09:20:39;;;;;;;3.13;1.95;;;25.50;99.90;;;;;;5027124;28;20029;-32
2023/06/29 09:23:04;;;;;;;2.08;1.88;;;25.90;99.90;;;;;;5023427;28;20056;-31
2023/06/29 09:25:32;;;;;;;1.88;1.73;;;25.90;99.90;;;;;;5025743;28;20034;-30
2023/06/29 09:28:17;;;;;;;2.22;1.80;;;25.80;99.90;;;;;;5027300;28;20033;-31
2023/06/29 09:30:42;;;;;;;2.30;1.90;;;26.00;99.90;;;;;;5026442;28;20032;-32
2023/06/29 09:33:12;;;;;;;2.35;2.10;;;25.80;99.90;;;;;;5025802;28;20025;-30
2023/06/29 09:35:46;;;;;;;2.28;1.90;;;25.40;99.90;;;;;;5025900;28;20044;-31
2023/06/29 09:38:14;;;;;;;2.13;1.92;;;25.20;99.90;;;;;;5026319;28;20048;-30
2023/06/29 09:40:47;;;;;;;2.92;2.08;;;25.40;99.90;;;;;;5023115;28;20022;-30
2023/06/29 09:43:21;;;;;;;3.47;2.10;;;25.90;99.90;;;;;;5023877;28;20411;-34
2023/06/29 09:45:47;;;;;;;2.70;2.00;;;26.10;99.90;;;;;;5022189;28;20823;-30
2023/06/29 09:48:20;;;;;;;4.30;2.20;;;26.00;99.90;;;;;;5023279;28;20021;-31
2023/06/29 09:50:52;;;;;;;2.50;1.95;;;26.10;99.90;;;;;;5026942;28;20104;-31
2023/06/29 09:53:17;;;;;;;3.47;1.90;;;25.70;99.90;;;;;;5026637;28;20045;-30
2023/06/29 09:55:44;;;;;;;2.33;1.90;;;25.60;99.90;;;;;;5022156;28;20037;-30
2023/06/29 09:58:12;;;;;;;2.13;1.60;;;25.70;99.90;;;;;;5024205;28;20029;-30
2023/06/29 10:00:39;;;;;;;4.25;1.90;;;25.60;99.90;;;;;;5023236;28;20056;-33
2023/06/29 10:03:05;;;;;;;2.60;2.38;;;25.50;99.90;;;;;;5022848;28;20121;-31
2023/06/29 10:05:31;;;;;;;3.22;2.05;;;25.50;99.90;;;;;;5027527;28;20104;-32
2023/06/29 10:08:00;;;;;;;2.40;2.20;;;25.30;99.90;;;;;;5025995;28;20026;-31
2023/06/29 10:10:29;;;;;;;2.40;2.13;;;25.30;99.90;;;;;;5024367;28;20056;-35
2023/06/29 10:12:57;;;;;;;4.10;2.13;;;25.30;99.90;;;;;;5006748;28;20033;-33
2023/06/29 10:15:25;;;;;;;4.68;2.72;;;25.40;99.90;;;;;;5021580;28;20030;-34
2023/06/29 10:18:08;;;;;;;3.28;2.20;;;25.40;99.90;;;;;;5020141;28;20031;-40
2023/06/29 10:20:36;;;;;;;3.05;2.20;;;25.50;99.90;;;;;;5019924;28;20127;-37
2023/06/29 10:23:04;;;;;;;3.13;2.30;;;25.40;99.90;;;;;;5007399;28;20083;-39
2023/06/29 10:25:32;;;;;;;3.00;2.22;;;25.70;99.90;;;;;;5025321;28;20638;-37
2023/06/29 10:27:59;;;;;;;2.97;2.30;;;25.80;99.90;;;;;;5018287;28;20038;-41
2023/06/29 10:30:25;;;;;;;3.80;2.30;;;25.80;99.90;;;;;;5006689;28;20056;-41
2023/06/29 10:32:51;;;;;;;3.20;2.60;;;26.10;99.90;;;;;;5021655;28;20119;-41
2023/06/29 10:35:17;;;;;;;3.50;2.20;;;26.10;99.90;;;;;;5019689;28;20364;-41
2023/06/29 10:37:48;;;;;;;2.42;2.22;;;26.00;99.90;;;;;;5023334;28;20032;-41
2023/06/29 10:40:16;;;;;;;3.13;2.30;;;26.20;99.90;;;;;;5017273;28;20087;-37
2023/06/29 10:42:41;;;;;;;;;;;26.40;99.90;;;;;;5024452;28;20044;-41
2023/06/29 10:45:16;;;;;;;2.70;2.25;;;26.30;99.90;;;;;;5022571;28;19909;-41
2023/06/29 10:47:42;;;;;;;3.30;2.20;;;26.10;99.90;;;;;;5022867;28;20026;-37
2023/06/29 10:50:10;;;;;;;3.92;2.40;;;26.20;99.90;;;;;;5021135;28;20041;-33
2023/06/29 10:52:37;;;;;;;3.40;2.20;;;26.10;99.90;;;;;;5016177;28;20034;-41
2023/06/29 10:55:20;;;;;;;3.42;2.03;;;26.30;99.90;;;;;;5021732;28;20034;-41
2023/06/29 10:57:58;;;;;;;2.55;1.70;;;26.60;99.90;;;;;;5016119;28;20034;-40
2023/06/29 11:00:25;;;;;;;2.00;1.90;;;27.00;99.90;;;;;;5020924;28;20521;-38
2023/06/29 11:02:52;;;;;;;1.80;1.70;;;27.50;99.90;;;;;;5024375;28;20204;-40
2023/06/29 11:05:19;;;;;;;2.45;2.20;;;27.60;99.90;;;;;;5020463;28;20065;-42
2023/06/29 11:07:49;;;;;;;2.23;2.00;;;27.60;99.90;;;;;;5019041;28;20083;-39
2023/06/29 11:10:14;;;;;;;2.85;1.70;;;27.70;99.90;;;;;;5028711;28;20053;-39
2023/06/29 11:12:41;;;;;;;2.58;2.10;;;27.60;99.90;;;;;;5027574;28;20072;-40
2023/06/29 11:15:13;;;;;;;3.25;2.20;;;27.80;99.90;;;;;;5024559;28;20029;-41
2023/06/29 11:17:39;;;;;;;3.72;1.80;;;27.20;99.90;;;;;;5023913;28;20033;-40
2023/06/29 11:20:10;;;;;;;2.97;1.90;;;27.30;99.90;;;;;;5024097;28;20026;-39
2023/06/29 11:22:39;;;;;;;2.67;1.92;;;27.10;99.90;;;;;;5024348;28;20530;-41
2023/06/29 11:25:10;;;;;;;1.63;1.52;;;26.80;99.90;;;;;;5024492;28;20030;-41
2023/06/29 11:27:35;;;;;;;2.85;2.22;;;26.70;99.90;;;;;;5024849;28;20096;-30
2023/06/29 11:30:07;;;;;;;3.67;2.28;;;26.50;99.90;;;;;;5005839;28;20467;-30
2023/06/29 11:32:33;;;;;;;3.63;2.10;;;26.00;99.90;;;;;;5022332;28;20045;-31
2023/06/29 11:35:00;;;;;;;3.45;1.90;;;26.00;99.90;;;;;;5029910;28;20061;-34
2023/06/29 11:37:27;;;;;;;2.50;2.22;;;26.00;99.90;;;;;;5027019;28;20383;-32
2023/06/29 11:39:53;;;;;;;2.30;2.05;;;25.80;99.90;;;;;;5027302;28;20051;-31
2023/06/29 11:42:21;;;;;;;2.38;2.17;;;25.80;99.90;;;;;;5026960;28;20646;-36
2023/06/29 11:44:49;;;;;;;3.25;2.33;;;25.80;99.90;;;;;;5033557;28;20055;-31
2023/06/29 11:47:16;;;;;;;4.10;2.38;;;25.90;99.90;;;;;;5027660;28;20029;-32
2023/06/29 11:49:42;;;;;;;3.00;2.80;;;26.10;99.90;;;;;;5030448;28;20059;-30
2023/06/29 11:52:10;;;;;;;2.58;2.15;;;26.30;99.90;;;;;;5030824;28;20037;-32
2023/06/29 11:54:36;;;;;;;2.55;2.10;;;26.80;99.90;;;;;;5014484;28;20045;-30
2023/06/29 11:57:02;;;;;;;2.20;2.10;;;26.80;99.90;;;;;;5030697;28;20076;-31
2023/06/29 11:59:28;;;;;;;2.85;2.20;;;26.60;99.90;;;;;;5011760;28;20038;-31
2023/06/29 12:01:54;;;;;;;2.05;1.85;;;26.30;99.90;;;;;;5024655;28;20044;-31
2023/06/29 12:04:19;;;;;;;2.53;1.63;;;26.10;99.90;;;;;;5026273;28;20075;-31
2023/06/29 12:06:56;;;;;;;5.35;2.00;;;25.80;99.90;;;;;;5024785;28;20398;-30
2023/06/29 12:09:31;;;;;;;2.95;1.90;;;25.90;99.90;;;;;;5027929;28;20360;-30
2023/06/29 12:11:59;;;;;;;3.70;1.80;;;26.60;99.90;;;;;;5024692;28;20112;-34
2023/06/29 12:14:34;;;;;;;3.33;2.03;;;27.00;99.90;;;;;;5027259;28;20038;-33
2023/06/29 12:17:00;;;;;;;2.38;2.17;;;26.60;99.90;;;;;;5028589;28;20729;-32
2023/06/29 12:19:30;;;;;;;2.72;2.20;;;26.30;99.90;;;;;;5026306;28;20056;-31
2023/06/29 12:21:56;;;;;;;3.13;2.70;;;26.30;99.90;;;;;;5025182;28;20022;-31
2023/06/29 12:24:25;;;;;;;2.35;2.15;;;26.80;99.90;;;;;;5007771;28;20033;-31
2023/06/29 12:26:50;;;;;;;2.42;2.22;;;26.80;99.90;;;;;;5025491;28;20064;-37
2023/06/29 12:29:16;;;;;;;2.63;2.35;;;26.90;99.90;;;;;;5028658;28;20135;-30
2023/06/29 12:31:41;;;;;;;2.95;2.28;;;27.10;99.90;;;;;;5025292;28;20034;-31
2023/06/29 12:34:07;;;;;;;2.80;2.47;;;26.90;99.90;;;;;;5028031;28;20383;-30
2023/06/29 12:36:33;;;;;;;2.97;2.03;;;26.80;99.90;;;;;;5025535;28;20021;-34
2023/06/29 12:38:58;;;;;;;2.85;2.40;;;26.60;99.90;;;;;;5018305;28;20390;-37
2023/06/29 12:41:24;;;;;;;2.40;2.20;;;26.90;99.90;;;;;;5023476;28;20034;-32
2023/06/29 12:43:50;;;;;;;3.20;2.28;;;27.10;99.90;;;;;;5022619;28;20030;-31
2023/06/29 12:46:16;;;;;;;3.50;2.28;;;27.50;99.90;;;;;;5021966;28;20040;-33
2023/06/29 12:48:45;;;;;;;4.03;2.60;;;27.70;99.90;;;;;;5017881;28;20101;-34
2023/06/29 12:51:10;;;;;;;2.58;2.28;;;27.60;99.90;;;;;;5023953;28;20041;-36
2023/06/29 12:53:38;;;;;;;2.65;1.98;;;28.00;99.90;;;;;;5026902;28;20118;-32
2023/06/29 12:56:03;;;;;;;3.25;2.20;;;27.80;99.90;;;;;;5025312;28;20037;-32
2023/06/29 12:58:29;;;;;;;2.75;2.20;;;28.10;99.90;;;;;;5021170;28;20025;-33
2023/06/29 13:00:54;;;;;;;3.78;2.78;;;28.20;99.90;;;;;;5022054;28;20678;-33
2023/06/29 13:03:20;;;;;;;2.50;2.25;;;27.90;99.90;;;;;;5022459;28;20454;-37
2023/06/29 13:05:52;;;;;;;2.35;2.15;;;27.60;99.90;;;;;;5022037;28;20041;-33
2023/06/29 13:08:17;;;;;;;2.63;2.42;;;27.70;99.90;;;;;;5020945;28;20037;-33
2023/06/29 13:10:44;;;;;;;2.92;1.95;;;28.00;99.90;;;;;;5024294;28;20095;-33